Time;durP1;ratioP1;P1;durP2;ratioP2;P2;SDS_P1;SDS_P2;PMS_P1;PMS_P2;Temp;Humidity;BMP_temperature;BMP_pressure;BME280_temperature;BME280_humidity;BME280_pressure;Samples;Min_cycle;Max_cycle;Signal;HPM_P1;HPM_P2
2023/10/18 00:02:00;;;;;;;12.73;7.97;;;8.10;99.90;;;;;;5056696;28;20080;-84
2023/10/18 00:04:28;;;;;;;16.52;7.90;;;8.10;99.90;;;;;;5053009;28;20075;-84
2023/10/18 00:06:55;;;;;;;14.75;7.38;;;8.10;99.90;;;;;;5032895;28;20060;-81
2023/10/18 00:12:08;;;;;;;9.20;5.32;;;8.10;99.90;;;;;;5055748;28;20394;-83
2023/10/18 00:14:35;;;;;;;10.20;5.43;;;8.10;99.90;;;;;;5037206;28;20046;-83
2023/10/18 00:17:02;;;;;;;11.10;5.72;;;8.10;99.90;;;;;;5051276;28;20056;-81
2023/10/18 00:19:28;;;;;;;7.43;4.78;;;8.10;99.90;;;;;;5052034;28;20084;-82
2023/10/18 00:21:56;;;;;;;7.93;4.93;;;8.10;99.90;;;;;;5059587;28;20098;-81
2023/10/18 00:24:22;;;;;;;8.10;5.43;;;8.00;99.90;;;;;;5058911;28;20060;-83
2023/10/18 00:26:49;;;;;;;12.07;5.25;;;8.00;99.90;;;;;;5062162;28;20086;-83
2023/10/18 00:29:17;;;;;;;9.52;5.03;;;8.00;99.90;;;;;;5057176;28;20053;-83
2023/10/18 00:31:44;;;;;;;13.07;5.70;;;8.00;99.90;;;;;;5061090;28;20052;-83
2023/10/18 00:34:11;;;;;;;10.40;5.88;;;8.00;99.90;;;;;;5053995;28;20456;-82
2023/10/18 00:36:40;;;;;;;7.63;5.55;;;8.00;99.90;;;;;;5056755;28;20049;-83
2023/10/18 00:39:21;;;;;;;8.07;5.32;;;8.00;99.90;;;;;;5053057;28;20056;-83
2023/10/18 00:41:54;;;;;;;11.85;5.30;;;8.00;99.90;;;;;;5053350;28;20052;-82
2023/10/18 00:44:21;;;;;;;6.32;4.80;;;8.00;99.90;;;;;;5057521;28;20131;-83
2023/10/18 00:46:55;;;;;;;7.70;5.00;;;8.00;99.90;;;;;;5039880;28;20482;-82
2023/10/18 00:49:22;;;;;;;9.90;5.72;;;8.00;99.90;;;;;;5037337;28;20576;-84
2023/10/18 00:51:49;;;;;;;7.68;6.13;;;7.90;99.90;;;;;;5061002;28;20040;-83
2023/10/18 00:54:19;;;;;;;11.82;6.15;;;7.90;99.90;;;;;;5048059;28;20498;-83
2023/10/18 00:56:46;;;;;;;8.30;5.82;;;7.90;99.90;;;;;;5059956;28;20049;-82
2023/10/18 00:59:24;;;;;;;10.40;5.82;;;7.90;99.90;;;;;;5059615;28;20510;-83
2023/10/18 01:02:10;;;;;;;5.88;5.07;;;7.90;99.90;;;;;;5058398;28;20040;-84
2023/10/18 01:04:37;;;;;;;10.15;5.10;;;7.80;99.90;;;;;;5055134;28;20049;-84
2023/10/18 01:07:14;;;;;;;6.75;5.10;;;7.80;99.90;;;;;;5059753;28;20127;-83
2023/10/18 01:09:48;;;;;;;6.15;4.53;;;7.80;99.90;;;;;;5049439;28;20049;-83
2023/10/18 01:12:15;;;;;;;5.95;4.55;;;7.80;99.90;;;;;;5041199;28;20479;-83
2023/10/18 01:14:44;;;;;;;7.85;4.85;;;7.80;99.90;;;;;;5057780;28;20073;-80
2023/10/18 01:17:11;;;;;;;6.90;4.47;;;7.80;99.90;;;;;;5047227;28;20041;-84
2023/10/18 01:19:41;;;;;;;5.97;4.15;;;7.70;99.90;;;;;;5061356;28;20041;-83
2023/10/18 01:22:08;;;;;;;8.18;5.47;;;7.70;99.90;;;;;;5061407;28;20474;-84
2023/10/18 01:24:35;;;;;;;8.85;6.22;;;7.70;99.90;;;;;;5058369;28;20076;-82
2023/10/18 01:27:05;;;;;;;10.32;6.38;;;7.70;99.90;;;;;;5046809;28;20052;-81
2023/10/18 01:29:33;;;;;;;7.00;5.32;;;7.70;99.90;;;;;;5055905;28;20089;-82
2023/10/18 01:31:59;;;;;;;13.82;6.63;;;7.70;99.90;;;;;;5037131;28;20527;-84
2023/10/18 01:34:26;;;;;;;10.35;7.70;;;7.70;99.90;;;;;;5051841;28;20045;-84
2023/10/18 01:36:57;;;;;;;8.48;6.55;;;7.70;99.90;;;;;;5062133;28;20052;-82
2023/10/18 01:39:28;;;;;;;;;;;7.60;99.90;;;;;;5054786;28;20055;-82
2023/10/18 01:41:58;;;;;;;9.02;5.90;;;7.60;99.90;;;;;;5044169;28;19951;-83
2023/10/18 01:44:28;;;;;;;8.03;6.10;;;7.60;99.90;;;;;;5056630;28;20041;-83
2023/10/18 01:46:56;;;;;;;;;;;7.60;99.90;;;;;;5053871;28;20397;-83
2023/10/18 01:49:26;;;;;;;8.52;5.32;;;7.60;99.90;;;;;;5056699;28;19921;-81
2023/10/18 01:51:54;;;;;;;7.50;4.97;;;7.60;99.90;;;;;;5048515;28;20036;-81
2023/10/18 01:54:32;;;;;;;10.30;5.85;;;7.70;99.90;;;;;;5056239;28;20046;-83
2023/10/18 01:57:00;;;;;;;7.72;4.57;;;7.70;99.90;;;;;;5044378;28;20095;-81
2023/10/18 01:59:29;;;;;;;5.53;4.35;;;7.70;99.90;;;;;;5040229;28;20045;-83
2023/10/18 02:01:59;;;;;;;7.22;5.00;;;7.80;99.90;;;;;;5031801;28;20093;-84
2023/10/18 02:04:26;;;;;;;10.70;5.85;;;7.80;99.90;;;;;;5058243;28;20072;-83
2023/10/18 02:07:17;;;;;;;8.52;5.45;;;7.80;99.90;;;;;;5058330;28;20089;-83
2023/10/18 02:09:57;;;;;;;9.05;6.07;;;7.80;99.90;;;;;;5064471;28;20048;-81
2023/10/18 02:12:27;;;;;;;8.07;5.60;;;7.80;99.90;;;;;;5054893;28;20124;-81
2023/10/18 02:14:55;;;;;;;8.98;5.32;;;7.80;99.90;;;;;;5060826;28;20044;-84
2023/10/18 02:17:22;;;;;;;8.85;5.85;;;7.80;99.90;;;;;;5041038;28;20140;-82
2023/10/18 02:19:49;;;;;;;7.80;6.25;;;7.90;99.90;;;;;;5059100;28;20128;-84
2023/10/18 02:22:16;;;;;;;13.43;6.97;;;7.80;99.90;;;;;;5037022;28;20042;-82
2023/10/18 02:24:43;;;;;;;9.60;6.65;;;7.90;99.90;;;;;;5057540;28;20059;-82
2023/10/18 02:27:15;;;;;;;10.73;6.72;;;7.90;99.90;;;;;;5049418;28;20508;-82
2023/10/18 02:29:44;;;;;;;9.60;6.57;;;7.90;99.90;;;;;;5054451;28;20049;-82
2023/10/18 02:32:32;;;;;;;10.45;6.47;;;8.00;99.90;;;;;;5048462;28;20087;-83
2023/10/18 02:35:00;;;;;;;11.25;6.70;;;8.00;99.90;;;;;;5057427;28;20050;-83
2023/10/18 02:37:26;;;;;;;10.75;6.38;;;8.00;99.90;;;;;;5047646;28;20037;-83
2023/10/18 02:40:07;;;;;;;11.77;6.00;;;8.00;99.90;;;;;;5039810;28;20555;-83
2023/10/18 02:42:34;;;;;;;11.38;6.57;;;8.00;99.90;;;;;;5048856;28;20091;-83
2023/10/18 02:45:04;;;;;;;8.82;6.20;;;8.10;99.90;;;;;;5036831;28;20049;-82
2023/10/18 02:47:32;;;;;;;8.48;6.57;;;8.10;99.90;;;;;;5058781;28;20051;-82
2023/10/18 02:49:59;;;;;;;7.97;6.05;;;8.10;99.90;;;;;;5058558;28;20051;-82
2023/10/18 02:52:29;;;;;;;9.23;6.63;;;8.10;99.90;;;;;;5048286;28;20055;-82
2023/10/18 02:54:57;;;;;;;11.88;6.30;;;8.10;99.90;;;;;;5053579;28;20056;-81
2023/10/18 02:57:24;;;;;;;10.50;6.35;;;8.10;99.90;;;;;;5047427;28;20390;-82
2023/10/18 02:59:51;;;;;;;8.45;6.05;;;8.20;99.90;;;;;;5052361;28;20055;-82
2023/10/18 03:02:24;;;;;;;8.07;5.68;;;8.20;99.90;;;;;;5052414;28;20072;-81
2023/10/18 03:04:52;;;;;;;8.18;5.60;;;8.20;99.90;;;;;;5054044;28;20050;-82
2023/10/18 03:07:22;;;;;;;9.15;5.90;;;8.30;99.90;;;;;;5050413;28;20128;-82
2023/10/18 03:09:51;;;;;;;8.63;5.43;;;8.30;99.90;;;;;;5031336;28;20057;-83
2023/10/18 03:12:21;;;;;;;7.25;5.75;;;8.30;99.90;;;;;;5038637;28;20425;-84
2023/10/18 03:14:55;;;;;;;;;;;8.40;99.90;;;;;;5032131;28;20074;-82
2023/10/18 03:17:23;;;;;;;10.70;7.15;;;8.40;99.90;;;;;;5051749;28;19933;-83
2023/10/18 03:19:55;;;;;;;7.50;6.13;;;8.40;99.90;;;;;;5049767;28;20049;-83
2023/10/18 03:22:30;;;;;;;10.40;7.25;;;8.40;99.90;;;;;;5034537;28;20056;-81
2023/10/18 03:24:59;;;;;;;13.48;6.68;;;8.40;99.90;;;;;;5034072;28;20762;-82
2023/10/18 03:27:30;;;;;;;9.95;6.47;;;8.40;99.90;;;;;;5047647;28;20042;-83
2023/10/18 03:29:58;;;;;;;11.57;7.03;;;8.40;99.90;;;;;;5057438;28;20045;-83
2023/10/18 03:32:26;;;;;;;9.73;6.47;;;8.40;99.90;;;;;;5056491;28;20111;-82
2023/10/18 03:34:53;;;;;;;10.75;7.32;;;8.30;99.90;;;;;;5055620;28;20062;-82
2023/10/18 03:37:30;;;;;;;12.13;8.38;;;8.30;99.90;;;;;;5054360;28;20052;-81
2023/10/18 03:39:57;;;;;;;11.40;8.68;;;8.30;99.90;;;;;;5049022;28;20053;-83
2023/10/18 03:42:45;;;;;;;12.02;9.13;;;8.20;99.90;;;;;;5050809;28;20045;-83
2023/10/18 03:45:20;;;;;;;13.35;9.48;;;8.20;99.90;;;;;;5040467;28;20621;-83
2023/10/18 03:47:57;;;;;;;11.35;8.05;;;8.20;99.90;;;;;;5038472;28;20459;-83
2023/10/18 03:50:35;;;;;;;16.02;9.52;;;8.20;99.90;;;;;;5038305;28;20531;-83
2023/10/18 03:53:02;;;;;;;17.42;10.85;;;8.20;99.90;;;;;;5053919;28;20104;-82
2023/10/18 03:55:38;;;;;;;19.35;11.00;;;8.20;99.90;;;;;;5026992;28;20092;-82
2023/10/18 03:58:05;;;;;;;16.48;10.63;;;8.20;99.90;;;;;;5052464;28;20047;-82
2023/10/18 04:00:38;;;;;;;19.40;11.77;;;8.20;99.90;;;;;;5052600;28;20120;-83
2023/10/18 04:03:10;;;;;;;17.73;12.18;;;8.20;99.90;;;;;;5055590;28;20045;-83
2023/10/18 04:05:43;;;;;;;16.70;11.35;;;8.20;99.90;;;;;;5045099;28;20148;-83
2023/10/18 04:08:15;;;;;;;18.75;11.98;;;8.20;99.90;;;;;;5052528;28;20094;-84
2023/10/18 04:10:44;;;;;;;18.40;12.05;;;8.30;99.90;;;;;;5026041;28;20402;-82
2023/10/18 04:13:14;;;;;;;22.52;12.68;;;8.30;99.90;;;;;;5054386;28;20075;-84
2023/10/18 04:15:45;;;;;;;20.58;12.68;;;8.30;99.90;;;;;;5050912;28;20050;-83
2023/10/18 04:18:13;;;;;;;18.70;12.13;;;8.30;99.90;;;;;;5056027;28;20503;-81
2023/10/18 04:20:47;;;;;;;17.70;11.32;;;8.30;99.90;;;;;;5052583;28;20137;-82
2023/10/18 04:23:26;;;;;;;15.57;11.30;;;8.30;99.90;;;;;;5033048;28;20048;-83
2023/10/18 04:25:57;;;;;;;21.52;11.70;;;8.40;99.90;;;;;;5049953;28;20072;-83
2023/10/18 04:28:37;;;;;;;24.33;12.68;;;8.40;99.90;;;;;;5051781;28;20052;-84
2023/10/18 04:31:08;;;;;;;13.63;11.05;;;8.40;99.90;;;;;;5055513;28;20476;-82
2023/10/18 04:33:36;;;;;;;14.05;10.50;;;8.40;99.90;;;;;;5049946;28;20091;-83
2023/10/18 04:36:14;;;;;;;13.75;9.88;;;8.40;99.90;;;;;;5048347;28;20059;-83
2023/10/18 04:38:44;;;;;;;15.98;10.75;;;8.40;99.90;;;;;;5038506;28;20095;-83
2023/10/18 04:41:23;;;;;;;15.70;9.73;;;8.30;99.90;;;;;;5061876;28;20076;-84
2023/10/18 04:44:05;;;;;;;17.10;10.33;;;8.30;99.90;;;;;;5040239;28;20056;-83
2023/10/18 04:46:35;;;;;;;18.92;11.20;;;8.30;99.90;;;;;;5053926;28;20906;-83
2023/10/18 04:54:09;;;;;;;14.35;10.05;;;8.20;99.90;;;;;;5052735;28;20071;-84
2023/10/18 04:56:38;;;;;;;19.42;11.55;;;8.20;99.90;;;;;;5060125;28;20113;-83
2023/10/18 04:59:13;;;;;;;16.48;10.43;;;8.20;99.90;;;;;;5055261;28;20112;-82
2023/10/18 05:01:56;;;;;;;18.38;11.68;;;8.20;99.90;;;;;;5052757;28;20045;-83
2023/10/18 05:04:34;;;;;;;11.90;8.55;;;8.20;99.90;;;;;;5051370;28;20048;-82
2023/10/18 05:15:09;;;;;;;14.90;10.48;;;8.30;99.90;;;;;;5059885;28;20099;-83
2023/10/18 05:17:42;;;;;;;15.70;9.45;;;8.30;99.90;;;;;;5059964;28;20084;-83
2023/10/18 05:22:44;;;;;;;19.02;10.18;;;8.40;99.90;;;;;;5059473;28;20041;-83
2023/10/18 05:28:03;;;;;;;14.63;9.68;;;8.40;99.90;;;;;;5057201;28;20041;-83
2023/10/18 05:41:35;;;;;;;26.35;12.77;;;8.50;99.90;;;;;;5065585;28;20048;-83
2023/10/18 05:44:05;;;;;;;17.63;11.90;;;8.50;99.90;;;;;;5061985;28;20053;-81
2023/10/18 05:46:33;;;;;;;18.35;12.48;;;8.50;99.90;;;;;;5057321;28;20045;-81
2023/10/18 05:49:01;;;;;;;23.25;13.15;;;8.50;99.90;;;;;;5053591;28;20049;-84
2023/10/18 05:51:34;;;;;;;25.63;13.70;;;8.60;99.90;;;;;;5047456;28;20087;-84
2023/10/18 05:54:05;;;;;;;19.92;12.43;;;8.60;99.90;;;;;;5062222;28;20049;-83
2023/10/18 05:56:32;;;;;;;24.65;13.38;;;8.60;99.90;;;;;;5061536;28;20044;-83
2023/10/18 06:01:57;;;;;;;23.55;11.93;;;8.60;99.90;;;;;;5058597;28;20056;-82
2023/10/18 06:04:26;;;;;;;20.58;12.80;;;8.60;99.90;;;;;;5046567;28;20052;-84
2023/10/18 06:12:27;;;;;;;17.90;11.77;;;8.60;99.90;;;;;;5054913;28;20040;-82
2023/10/18 06:14:57;;;;;;;18.23;11.45;;;8.60;99.90;;;;;;5049398;28;20516;-83
2023/10/18 06:17:43;;;;;;;19.52;12.38;;;8.60;99.90;;;;;;5053064;28;20044;-84
2023/10/18 06:20:44;;;;;;;26.05;12.18;;;8.60;99.90;;;;;;5044559;28;20059;-83
2023/10/18 06:23:09;;;;;;;20.63;10.90;;;8.60;99.90;;;;;;5055450;28;20049;-83
2023/10/18 06:25:44;;;;;;;20.33;11.20;;;8.60;99.90;;;;;;5054330;28;20076;-82
2023/10/18 06:28:11;;;;;;;24.38;11.77;;;8.70;99.90;;;;;;5052881;28;20049;-81
2023/10/18 06:30:41;;;;;;;21.13;11.68;;;8.70;99.90;;;;;;5052185;28;20084;-83
2023/10/18 06:33:12;;;;;;;18.10;10.25;;;8.70;99.90;;;;;;5055605;28;20045;-83
2023/10/18 06:35:51;;;;;;;19.50;12.60;;;8.80;99.90;;;;;;5049319;28;20045;-84
2023/10/18 06:38:22;;;;;;;20.30;11.73;;;8.80;99.90;;;;;;5054605;28;20074;-83
2023/10/18 06:40:53;;;;;;;17.00;11.57;;;8.80;99.90;;;;;;5056382;28;20083;-82
2023/10/18 06:43:32;;;;;;;20.20;11.85;;;8.80;99.90;;;;;;5053484;28;20071;-82
2023/10/18 06:45:59;;;;;;;17.33;10.95;;;8.90;99.90;;;;;;5034020;28;20522;-83
2023/10/18 06:48:28;;;;;;;21.13;11.95;;;8.90;99.90;;;;;;5048580;28;20084;-83
2023/10/18 06:50:55;;;;;;;14.52;10.82;;;8.90;99.90;;;;;;5056918;28;20049;-83
2023/10/18 06:53:22;;;;;;;15.73;10.13;;;8.90;99.90;;;;;;5039577;28;20045;-83
2023/10/18 06:55:56;;;;;;;23.67;11.93;;;9.00;99.90;;;;;;5053477;28;20107;-81
2023/10/18 07:01:00;;;;;;;20.45;9.90;;;8.90;99.90;;;;;;5047279;28;20045;-83
2023/10/18 07:03:28;;;;;;;24.27;10.90;;;8.90;99.90;;;;;;5039627;28;20124;-83
2023/10/18 07:05:58;;;;;;;18.50;10.93;;;8.90;99.90;;;;;;5050443;28;20054;-83
2023/10/18 07:08:34;;;;;;;15.73;10.02;;;8.90;99.90;;;;;;5049261;28;20056;-83
2023/10/18 07:11:01;;;;;;;14.68;9.45;;;9.00;99.90;;;;;;5050483;28;20049;-82
2023/10/18 07:13:47;;;;;;;14.98;9.68;;;9.00;99.90;;;;;;5044429;28;20088;-83
2023/10/18 07:16:16;;;;;;;16.77;10.52;;;9.00;99.90;;;;;;5050445;28;20049;-82
2023/10/18 07:18:44;;;;;;;18.92;10.77;;;9.00;99.90;;;;;;5033274;28;20386;-82
2023/10/18 07:21:18;;;;;;;13.13;9.55;;;9.00;99.90;;;;;;5055199;28;20045;-83
2023/10/18 07:23:53;;;;;;;16.33;10.05;;;8.90;99.90;;;;;;5048085;28;20436;-82
2023/10/18 07:26:22;;;;;;;23.10;10.15;;;8.90;99.90;;;;;;5057540;28;20049;-83
2023/10/18 07:28:49;;;;;;;16.42;9.85;;;8.80;99.90;;;;;;5051288;28;20071;-84
2023/10/18 07:31:23;;;;;;;17.38;10.63;;;8.80;99.90;;;;;;5059501;28;20056;-82
2023/10/18 07:33:50;;;;;;;18.35;10.40;;;8.80;99.90;;;;;;5058849;28;20049;-83
2023/10/18 07:36:18;;;;;;;12.73;9.15;;;8.90;99.90;;;;;;5057945;28;20084;-82
2023/10/18 07:38:47;;;;;;;13.65;9.60;;;8.90;99.90;;;;;;5049867;28;20064;-82
2023/10/18 07:41:14;;;;;;;18.02;10.32;;;8.90;99.90;;;;;;5054301;28;20045;-83
2023/10/18 07:43:44;;;;;;;15.05;9.70;;;9.00;99.90;;;;;;5043638;28;20084;-84
2023/10/18 07:46:18;;;;;;;15.07;10.27;;;9.00;99.90;;;;;;5053090;28;20137;-83
2023/10/18 07:48:49;;;;;;;12.73;10.32;;;9.00;99.90;;;;;;5054217;28;20057;-83
2023/10/18 07:51:26;;;;;;;17.00;11.20;;;9.10;99.90;;;;;;5052166;28;20045;-84
2023/10/18 07:53:54;;;;;;;15.75;10.40;;;9.10;99.90;;;;;;5051063;28;20086;-83
2023/10/18 07:56:29;;;;;;;17.73;10.15;;;9.20;99.90;;;;;;5049410;28;20120;-82
2023/10/18 08:01:52;;;;;;;12.68;10.00;;;9.20;99.90;;;;;;5061770;28;20105;-84
2023/10/18 08:04:20;;;;;;;13.75;9.40;;;9.30;99.90;;;;;;5054830;28;20049;-82
2023/10/18 08:06:50;;;;;;;15.27;9.63;;;9.30;99.90;;;;;;5027775;28;20560;-82
2023/10/18 08:09:28;;;;;;;14.00;9.27;;;9.40;99.90;;;;;;5031645;28;20049;-83
2023/10/18 08:12:06;;;;;;;14.40;10.20;;;9.40;99.90;;;;;;5044332;28;20075;-83
2023/10/18 08:14:33;;;;;;;15.25;10.02;;;9.50;99.90;;;;;;5037801;28;20045;-83
2023/10/18 08:17:08;;;;;;;15.32;10.57;;;9.50;99.90;;;;;;5050987;28;20527;-84
2023/10/18 08:19:55;;;;;;;14.50;10.10;;;9.50;99.90;;;;;;5037346;28;20461;-82
2023/10/18 08:22:22;;;;;;;16.45;10.68;;;9.50;99.90;;;;;;5048356;28;20040;-83
2023/10/18 08:24:52;;;;;;;12.98;9.82;;;9.60;99.90;;;;;;5046733;28;20141;-84
2023/10/18 08:27:20;;;;;;;14.73;10.80;;;9.60;99.90;;;;;;5033733;28;20045;-83
2023/10/18 08:29:52;;;;;;;22.00;11.82;;;9.70;99.90;;;;;;5038558;28;20053;-84
2023/10/18 08:32:29;;;;;;;22.33;11.65;;;9.70;99.90;;;;;;5058935;28;20053;-81
2023/10/18 08:35:06;;;;;;;19.58;11.18;;;9.80;99.90;;;;;;5056745;28;20242;-84
2023/10/18 08:37:33;;;;;;;18.65;11.18;;;9.90;99.90;;;;;;5045315;28;20041;-83
2023/10/18 08:39:59;;;;;;;16.55;12.40;;;9.90;99.90;;;;;;5040171;28;20059;-83
2023/10/18 08:42:32;;;;;;;15.52;11.30;;;10.00;99.90;;;;;;5050872;28;20045;-83
2023/10/18 08:45:04;;;;;;;20.70;12.55;;;10.00;99.90;;;;;;5058652;28;20057;-83
2023/10/18 08:47:35;;;;;;;21.17;12.70;;;10.00;99.90;;;;;;5035899;28;20553;-83
2023/10/18 08:50:05;;;;;;;18.52;12.27;;;10.10;99.90;;;;;;5039187;28;20045;-83
2023/10/18 08:52:35;;;;;;;16.27;12.18;;;10.10;99.90;;;;;;5056514;28;20111;-85
2023/10/18 08:55:19;;;;;;;21.90;12.73;;;10.10;99.90;;;;;;5058978;28;20045;-84
2023/10/18 08:57:47;;;;;;;19.55;12.75;;;10.10;99.90;;;;;;5054305;28;20060;-83
2023/10/18 09:02:52;;;;;;;19.33;11.88;;;10.20;99.90;;;;;;5052089;28;20049;-82
2023/10/18 09:05:22;;;;;;;18.35;12.63;;;10.20;99.90;;;;;;5055873;28;20053;-84
2023/10/18 09:07:53;;;;;;;21.60;14.40;;;10.20;99.90;;;;;;5045505;28;20083;-84
2023/10/18 09:10:33;;;;;;;19.33;12.15;;;10.20;99.90;;;;;;5037108;28;20049;-83
2023/10/18 09:15:54;;;;;;;23.88;13.85;;;10.30;99.90;;;;;;5054049;28;20049;-83
2023/10/18 09:18:32;;;;;;;17.83;12.10;;;10.30;99.90;;;;;;5058245;28;20075;-84
2023/10/18 09:23:42;;;;;;;19.67;13.07;;;10.30;99.90;;;;;;5052502;28;20048;-83
2023/10/18 09:26:11;;;;;;;19.08;11.60;;;10.30;99.90;;;;;;5058848;28;20429;-83
2023/10/18 09:28:41;;;;;;;17.67;11.98;;;10.40;99.90;;;;;;5057435;28;20045;-84
2023/10/18 09:31:16;;;;;;;15.82;11.88;;;10.40;99.90;;;;;;5040827;28;20049;-84
2023/10/18 09:33:49;;;;;;;19.10;13.25;;;10.40;99.90;;;;;;5045217;28;20055;-83
2023/10/18 09:36:23;;;;;;;20.20;13.95;;;10.40;99.90;;;;;;5052682;28;20420;-83
2023/10/18 09:38:52;;;;;;;18.20;12.85;;;10.30;99.90;;;;;;5055183;28;20041;-83
2023/10/18 09:41:20;;;;;;;18.98;12.25;;;10.30;99.90;;;;;;5058343;28;20056;-82
2023/10/18 09:43:47;;;;;;;16.48;13.52;;;10.40;99.90;;;;;;5045861;28;20048;-83
2023/10/18 09:46:15;;;;;;;20.13;12.27;;;10.40;99.90;;;;;;5052631;28;20084;-83
2023/10/18 09:48:44;;;;;;;19.67;12.80;;;10.40;99.90;;;;;;5052979;28;20064;-83
2023/10/18 09:51:16;;;;;;;16.60;12.90;;;10.40;99.90;;;;;;5050165;28;20493;-83
2023/10/18 09:53:53;;;;;;;19.80;12.95;;;10.40;99.90;;;;;;5051583;28;20048;-83
2023/10/18 09:56:24;;;;;;;21.13;14.65;;;10.50;99.90;;;;;;5058072;28;20488;-85
2023/10/18 09:59:04;;;;;;;19.85;13.55;;;10.50;99.90;;;;;;5055955;28;20050;-84
2023/10/18 10:04:13;;;;;;;20.08;13.82;;;10.50;99.90;;;;;;5053672;28;20049;-83
2023/10/18 10:06:45;;;;;;;18.20;14.00;;;10.60;99.90;;;;;;5038825;28;20049;-81
2023/10/18 10:09:13;;;;;;;20.10;12.50;;;10.60;99.90;;;;;;5053598;28;20132;-83
2023/10/18 10:11:43;;;;;;;19.70;13.85;;;10.70;99.90;;;;;;5057968;28;20049;-83
2023/10/18 10:14:11;;;;;;;22.15;14.90;;;10.70;99.90;;;;;;5053456;28;20652;-82
2023/10/18 10:16:57;;;;;;;19.52;14.82;;;10.70;99.90;;;;;;5043539;28;20049;-83
2023/10/18 10:19:31;;;;;;;22.30;16.50;;;10.80;99.90;;;;;;5056001;28;20053;-83
2023/10/18 10:22:06;;;;;;;20.73;16.73;;;10.80;99.90;;;;;;5048797;28;20117;-83
2023/10/18 10:24:43;;;;;;;21.65;14.45;;;10.90;99.90;;;;;;5058808;28;20051;-82
2023/10/18 10:27:27;;;;;;;19.35;13.55;;;10.90;99.90;;;;;;5057128;28;20064;-83
2023/10/18 10:29:58;;;;;;;18.63;13.38;;;10.90;99.90;;;;;;5054077;28;20053;-84
2023/10/18 10:32:27;;;;;;;18.33;13.70;;;10.90;99.90;;;;;;5031717;28;20057;-83
2023/10/18 10:35:27;;;;;;;16.77;13.13;;;10.90;99.90;;;;;;5054939;28;20064;-83
2023/10/18 10:38:09;;;;;;;19.95;13.20;;;10.90;99.90;;;;;;5042820;28;20049;-83
2023/10/18 10:40:43;;;;;;;19.15;13.32;;;11.00;99.90;;;;;;5046201;28;20041;-82
2023/10/18 10:43:12;;;;;;;19.63;13.70;;;11.00;99.90;;;;;;5051333;28;20045;-82
2023/10/18 10:51:16;;;;;;;22.38;14.43;;;11.20;99.90;;;;;;5044202;28;20076;-83
2023/10/18 10:53:57;;;;;;;17.40;13.13;;;11.30;99.90;;;;;;5054851;28;20052;-83
2023/10/18 10:56:27;;;;;;;19.48;13.25;;;11.30;99.90;;;;;;5052826;28;20099;-84
2023/10/18 10:59:09;;;;;;;17.25;12.77;;;11.30;99.90;;;;;;5054073;28;20099;-84
2023/10/18 11:01:39;;;;;;;16.98;12.52;;;11.40;99.90;;;;;;5044355;28;20045;-82
2023/10/18 11:04:14;;;;;;;19.63;13.50;;;11.50;99.90;;;;;;5048826;28;20135;-82
2023/10/18 11:06:43;;;;;;;17.63;12.57;;;11.50;99.90;;;;;;5036858;28;20036;-83
2023/10/18 11:09:17;;;;;;;18.42;13.25;;;11.60;99.90;;;;;;5050734;28;20053;-82
2023/10/18 11:11:45;;;;;;;20.13;13.98;;;11.70;99.90;;;;;;5033650;28;20102;-82
2023/10/18 11:14:18;;;;;;;18.15;12.93;;;11.70;99.90;;;;;;5060916;28;20118;-83
2023/10/18 11:16:53;;;;;;;17.73;13.52;;;11.80;99.90;;;;;;5060094;28;20049;-83
2023/10/18 11:19:28;;;;;;;20.60;15.55;;;11.80;99.90;;;;;;5056428;28;20108;-83
2023/10/18 11:21:58;;;;;;;17.42;13.25;;;11.90;99.90;;;;;;5060912;28;20052;-82
2023/10/18 11:24:27;;;;;;;17.27;13.90;;;11.90;99.90;;;;;;5042282;28;20417;-82
2023/10/18 11:26:58;;;;;;;24.70;13.93;;;11.90;99.90;;;;;;5053626;28;20057;-84
2023/10/18 11:29:24;;;;;;;19.85;13.63;;;11.90;99.90;;;;;;5057041;28;20732;-83
2023/10/18 11:31:58;;;;;;;16.60;13.25;;;11.90;99.90;;;;;;5049347;28;20049;-84
2023/10/18 11:34:26;;;;;;;19.95;15.23;;;11.90;99.90;;;;;;5054823;28;20049;-84
2023/10/18 11:36:55;;;;;;;24.35;16.45;;;12.00;99.90;;;;;;5053816;28;20656;-84
2023/10/18 11:39:29;;;;;;;20.90;15.75;;;12.00;99.90;;;;;;5049109;28;20052;-83
2023/10/18 11:41:59;;;;;;;25.38;15.52;;;12.10;99.90;;;;;;5054281;28;20428;-81
2023/10/18 11:44:31;;;;;;;18.55;13.43;;;12.10;99.90;;;;;;5046127;28;20041;-81
2023/10/18 11:47:18;;;;;;;17.27;14.45;;;12.20;99.90;;;;;;5043013;28;20151;-83
2023/10/18 11:49:52;;;;;;;21.17;14.68;;;12.20;99.90;;;;;;5051296;28;20059;-81
2023/10/18 11:52:25;;;;;;;24.38;15.05;;;12.20;99.90;;;;;;5049784;28;20057;-82
2023/10/18 11:55:08;;;;;;;24.25;15.90;;;12.20;99.90;;;;;;5037251;28;20516;-82
2023/10/18 11:57:39;;;;;;;22.52;15.25;;;12.30;99.90;;;;;;5053285;28;20556;-82
2023/10/18 12:02:49;;;;;;;22.67;14.30;;;12.30;99.90;;;;;;5051795;28;20063;-83
2023/10/18 12:05:23;;;;;;;20.95;15.00;;;12.40;99.90;;;;;;5032335;28;20045;-81
2023/10/18 12:07:53;;;;;;;20.05;13.77;;;12.50;99.90;;;;;;5028206;28;20454;-82
2023/10/18 12:10:25;;;;;;;21.97;15.47;;;12.50;99.90;;;;;;5049049;28;20072;-80
2023/10/18 12:12:55;;;;;;;20.40;14.52;;;12.60;99.90;;;;;;5055120;28;20050;-82
2023/10/18 12:15:25;;;;;;;19.73;14.43;;;12.60;99.90;;;;;;5046722;28;20314;-82
2023/10/18 12:17:52;;;;;;;21.33;14.40;;;12.70;99.90;;;;;;5053719;28;20049;-82
2023/10/18 12:20:25;;;;;;;18.27;13.45;;;12.70;99.90;;;;;;5053604;28;20044;-83
2023/10/18 12:22:52;;;;;;;22.27;14.23;;;12.80;99.90;;;;;;5055597;28;20040;-83
2023/10/18 12:25:20;;;;;;;20.58;14.70;;;12.80;99.90;;;;;;5048275;28;20095;-82
2023/10/18 12:27:52;;;;;;;21.00;14.35;;;12.80;99.90;;;;;;5052553;28;20103;-82
2023/10/18 12:30:32;;;;;;;20.30;14.25;;;12.90;99.90;;;;;;5046969;28;20068;-83
2023/10/18 12:33:04;;;;;;;20.58;13.52;;;12.90;99.90;;;;;;5054066;28;20053;-81
2023/10/18 12:35:35;;;;;;;21.85;14.18;;;13.00;99.90;;;;;;5056404;28;20060;-82
2023/10/18 12:38:12;;;;;;;21.33;14.25;;;13.10;99.90;;;;;;5048947;28;20057;-83
2023/10/18 12:40:50;;;;;;;20.00;14.35;;;13.20;99.90;;;;;;5037050;28;20539;-82
2023/10/18 12:43:19;;;;;;;20.48;14.48;;;13.20;99.90;;;;;;5049746;28;20048;-80
2023/10/18 12:45:50;;;;;;;22.30;15.00;;;13.30;99.90;;;;;;5030349;28;20054;-83
2023/10/18 12:48:22;;;;;;;;;;;13.30;99.90;;;;;;5052940;28;20052;-82
2023/10/18 12:50:51;;;;;;;18.35;14.90;;;13.40;99.90;;;;;;5038500;28;19920;-82
2023/10/18 12:55:59;;;;;;;22.23;16.05;;;13.20;99.90;;;;;;5049602;28;20457;-82
2023/10/18 12:58:29;;;;;;;21.50;16.33;;;13.10;99.90;;;;;;5048304;28;20052;-83
2023/10/18 13:01:05;;;;;;;23.05;15.95;;;13.10;99.90;;;;;;5061022;28;20048;-84
2023/10/18 13:03:34;;;;;;;27.48;16.52;;;13.00;99.90;;;;;;5057997;28;20142;-84
2023/10/18 13:06:01;;;;;;;22.20;14.88;;;13.00;99.90;;;;;;5034753;28;20055;-82
2023/10/18 13:08:34;;;;;;;26.10;15.88;;;12.90;99.90;;;;;;5052183;28;20105;-84
2023/10/18 13:13:31;;;;;;;23.70;15.90;;;12.90;99.90;;;;;;5048115;28;20081;-82
2023/10/18 13:15:58;;;;;;;28.27;17.33;;;12.80;99.90;;;;;;5037585;28;20048;-82
2023/10/18 13:18:26;;;;;;;28.83;16.52;;;12.80;99.90;;;;;;5060606;28;20420;-83
2023/10/18 13:20:58;;;;;;;23.92;17.20;;;12.70;99.90;;;;;;5060262;28;20048;-83
2023/10/18 13:23:29;;;;;;;28.05;18.50;;;12.60;99.90;;;;;;5053813;28;20095;-83
2023/10/18 13:25:56;;;;;;;27.90;17.83;;;12.60;99.90;;;;;;5055503;28;20045;-83
2023/10/18 13:28:33;;;;;;;26.15;18.67;;;12.50;99.90;;;;;;5046085;28;20053;-83
2023/10/18 13:31:07;;;;;;;25.60;18.70;;;12.40;99.90;;;;;;5047925;28;20055;-83
2023/10/18 13:33:34;;;;;;;26.90;19.23;;;12.40;99.90;;;;;;5043743;28;20049;-83
2023/10/18 13:36:08;;;;;;;29.58;19.63;;;12.30;99.90;;;;;;5039627;28;20064;-83
2023/10/18 13:38:36;;;;;;;28.05;19.92;;;12.20;99.90;;;;;;5061503;28;20050;-83
2023/10/18 13:41:03;;;;;;;30.27;20.85;;;12.20;99.90;;;;;;5051139;28;20504;-83
2023/10/18 13:43:30;;;;;;;31.23;20.63;;;12.20;99.90;;;;;;5061819;28;20087;-84
2023/10/18 13:45:58;;;;;;;33.65;22.67;;;12.20;99.90;;;;;;5050379;28;20036;-83
2023/10/18 13:48:25;;;;;;;30.90;19.48;;;12.10;99.90;;;;;;5058293;28;20041;-83
2023/10/18 13:50:58;;;;;;;26.50;19.52;;;12.10;99.90;;;;;;5051519;28;20051;-83
2023/10/18 13:53:26;;;;;;;32.20;21.08;;;12.10;99.90;;;;;;5057375;28;20136;-82
2023/10/18 13:55:59;;;;;;;26.17;20.38;;;11.90;99.90;;;;;;5064255;28;20475;-82
2023/10/18 13:58:29;;;;;;;28.30;20.63;;;11.90;99.90;;;;;;5058219;28;20047;-83
2023/10/18 14:00:56;;;;;;;31.77;21.42;;;11.90;99.90;;;;;;5062008;28;20040;-83
2023/10/18 14:03:23;;;;;;;27.70;19.83;;;11.80;99.90;;;;;;5058993;28;20102;-83
2023/10/18 14:05:50;;;;;;;30.95;21.75;;;11.80;99.90;;;;;;5062454;28;20044;-83
2023/10/18 14:08:18;;;;;;;33.22;22.00;;;11.80;99.90;;;;;;5047249;28;20420;-84
2023/10/18 14:10:45;;;;;;;30.25;20.73;;;11.80;99.90;;;;;;5038007;28;20088;-82